Time;durP1;ratioP1;P1;durP2;ratioP2;P2;SDS_P1;SDS_P2;PMS_P1;PMS_P2;Temp;Humidity;BMP_temperature;BMP_pressure;BME280_temperature;BME280_humidity;BME280_pressure;Samples;Min_cycle;Max_cycle;Signal;HPM_P1;HPM_P2
2021/03/06 00:01:02;;;;;;;6.70;3.63;;;;;;;3.22;57.85;103120.31;6070622;29;20339;-55
2021/03/06 00:04:23;;;;;;;7.50;2.90;;;;;;;3.71;56.83;103106.75;6070317;29;20229;-57
2021/03/06 00:07:44;;;;;;;7.13;2.73;;;;;;;3.94;55.84;103113.16;6070903;29;20749;-55
2021/03/06 00:11:04;;;;;;;7.90;2.60;;;;;;;3.49;57.90;103122.66;6072201;29;20357;-55
2021/03/06 00:14:24;;;;;;;9.33;3.73;;;;;;;3.58;57.83;103123.19;6066602;29;20360;-57
2021/03/06 00:17:45;;;;;;;6.57;3.40;;;;;;;3.74;56.46;103123.25;6069298;29;20249;-56
2021/03/06 00:21:06;;;;;;;6.37;2.97;;;;;;;3.65;56.90;103122.75;6064995;29;20238;-57
2021/03/06 00:24:29;;;;;;;7.87;2.77;;;;;;;3.57;57.25;103125.66;6054383;29;20229;-57
2021/03/06 00:27:49;;;;;;;6.97;3.47;;;;;;;3.38;57.12;103116.91;6055120;29;20260;-58
2021/03/06 00:31:10;;;;;;;6.20;3.13;;;;;;;3.27;58.04;103123.13;6054505;29;20265;-56
2021/03/06 00:34:30;;;;;;;6.97;2.73;;;;;;;3.29;58.89;103124.09;6039926;29;20237;-57
2021/03/06 00:37:51;;;;;;;7.57;2.87;;;;;;;3.26;58.55;103117.09;6062733;29;20608;-55
2021/03/06 00:41:12;;;;;;;9.73;4.00;;;;;;;3.30;58.33;103119.03;6067957;29;20314;-58
2021/03/06 00:44:32;;;;;;;6.83;3.20;;;;;;;3.57;56.82;103118.84;6059257;29;20229;-57
2021/03/06 00:47:53;;;;;;;5.33;2.40;;;;;;;3.34;58.72;103118.41;6067865;29;20221;-54
2021/03/06 00:51:13;;;;;;;5.67;2.87;;;;;;;3.27;58.64;103113.72;6068965;29;20238;-55
2021/03/06 00:54:34;;;;;;;10.07;3.13;;;;;;;3.40;57.28;103115.31;6067047;29;20496;-54
2021/03/06 00:57:56;;;;;;;6.83;2.60;;;;;;;3.49;57.66;103114.94;6069651;29;20603;-56
2021/03/06 01:01:17;;;;;;;6.27;2.23;;;;;;;3.58;57.77;103115.47;6066895;29;20241;-56
2021/03/06 01:04:38;;;;;;;6.03;2.63;;;;;;;3.47;58.16;103113.97;6070940;29;20273;-55
2021/03/06 01:07:59;;;;;;;6.53;2.93;;;;;;;3.69;56.99;103110.91;6069702;29;20241;-55
2021/03/06 01:11:19;;;;;;;7.10;3.23;;;;;;;3.16;59.28;103109.66;6071381;29;20236;-57
2021/03/06 01:14:41;;;;;;;5.90;3.10;;;;;;;3.48;57.23;103097.72;6073684;29;20566;-55
2021/03/06 01:18:02;;;;;;;8.33;3.20;;;;;;;3.36;58.69;103097.91;6068575;29;20229;-56
2021/03/06 01:21:22;;;;;;;6.83;3.17;;;;;;;2.82;59.46;103099.94;6068757;29;20229;-53
2021/03/06 01:24:42;;;;;;;5.17;2.47;;;;;;;3.07;59.18;103101.38;6075225;29;20868;-58
2021/03/06 01:28:03;;;;;;;12.33;2.77;;;;;;;2.69;59.90;103103.44;6069101;29;20233;-56
2021/03/06 01:31:24;;;;;;;3.43;3.13;;;;;;;2.91;59.74;103087.63;6071562;29;20545;-53
2021/03/06 01:34:44;;;;;;;6.50;2.87;;;;;;;3.19;58.77;103094.34;6065426;29;20246;-57
2021/03/06 01:38:05;;;;;;;5.63;2.87;;;;;;;3.14;58.65;103088.03;6068984;29;20754;-55
2021/03/06 01:41:26;;;;;;;6.80;2.60;;;;;;;2.76;60.91;103094.44;6069538;29;20241;-56
2021/03/06 01:44:46;;;;;;;2.70;1.93;;;;;;;2.70;60.69;103094.94;6073677;29;20229;-57
2021/03/06 01:48:08;;;;;;;8.93;3.43;;;;;;;3.02;59.61;103089.91;6069696;29;20615;-55
2021/03/06 01:51:29;;;;;;;7.63;2.80;;;;;;;2.96;60.11;103080.16;6080930;29;20548;-55
2021/03/06 01:54:50;;;;;;;6.67;2.53;;;;;;;3.18;58.75;103082.31;6080340;29;20225;-54
2021/03/06 01:58:13;;;;;;;5.07;2.37;;;;;;;3.09;59.21;103076.63;6066847;29;20237;-52
2021/03/06 02:01:33;;;;;;;4.60;2.23;;;;;;;2.71;61.28;103077.81;6074874;29;20233;-55
2021/03/06 02:04:54;;;;;;;7.27;2.67;;;;;;;2.56;61.01;103068.41;6067829;29;20233;-57
2021/03/06 02:08:15;;;;;;;5.80;3.00;;;;;;;2.34;62.75;103076.50;6067393;29;20754;-56
2021/03/06 02:11:43;;;;;;;4.63;3.60;;;;;;;1.86;64.16;103065.00;6074069;29;20236;-56
2021/03/06 02:15:14;;;;;;;13.97;3.43;;;;;;;2.11;63.61;103057.13;6072841;29;20229;-56
2021/03/06 02:18:40;;;;;;;6.30;4.37;;;;;;;2.05;64.21;103061.84;6072073;29;20410;-54
2021/03/06 02:22:16;;;;;;;5.00;3.13;;;;;;;2.16;63.06;103060.84;6072298;29;20229;-55
2021/03/06 02:25:59;;;;;;;7.67;3.10;;;;;;;2.29;62.64;103061.63;6068992;29;20592;-58
2021/03/06 02:29:40;;;;;;;7.70;2.40;;;;;;;2.04;63.79;103065.25;6073973;29;20611;-55
2021/03/06 02:33:02;;;;;;;3.73;2.13;;;;;;;2.44;62.84;103062.50;6061942;29;20245;-55
2021/03/06 02:36:26;;;;;;;9.47;3.87;;;;;;;2.39;63.25;103055.34;6071436;29;20229;-56
2021/03/06 02:39:49;;;;;;;5.77;2.53;;;;;;;2.29;63.19;103051.31;6045309;29;20234;-56
2021/03/06 02:43:11;;;;;;;6.43;3.07;;;;;;;2.52;62.60;103053.59;6066282;29;20351;-54
2021/03/06 02:46:34;;;;;;;4.57;2.20;;;;;;;2.08;64.22;103056.91;6065178;29;20249;-55
2021/03/06 02:49:55;;;;;;;9.67;2.70;;;;;;;2.34;63.57;103042.19;6075124;29;20237;-57
2021/03/06 02:53:16;;;;;;;5.47;2.27;;;;;;;2.84;61.39;103033.13;6070645;29;20245;-56
2021/03/06 02:56:37;;;;;;;6.13;2.03;;;;;;;3.16;60.68;103037.56;6073711;29;20568;-56
2021/03/06 03:00:06;;;;;;;5.17;3.53;;;;;;;3.22;59.96;103036.97;6056343;29;20256;-56
2021/03/06 03:03:43;;;;;;;5.70;2.07;;;;;;;3.29;60.75;103029.69;6071534;29;20236;-54
2021/03/06 03:07:09;;;;;;;5.43;1.90;;;;;;;2.99;60.46;103033.13;6072357;29;20513;-51
2021/03/06 03:10:33;;;;;;;7.40;2.93;;;;;;;3.01;60.87;103031.53;6072138;29;20245;-54
2021/03/06 03:13:56;;;;;;;5.73;3.10;;;;;;;2.72;61.86;103033.28;6068436;29;20237;-57
2021/03/06 03:17:22;;;;;;;7.00;3.03;;;;;;;2.73;62.03;103032.47;6043910;29;20363;-55
2021/03/06 03:20:50;;;;;;;7.43;2.30;;;;;;;2.61;63.13;103024.06;6072994;29;20237;-56
2021/03/06 03:24:14;;;;;;;3.77;2.33;;;;;;;2.36;63.19;103020.03;6062748;29;20237;-55
2021/03/06 03:27:37;;;;;;;6.97;2.87;;;;;;;2.43;64.28;103013.56;6068212;29;20229;-55
2021/03/06 03:30:59;;;;;;;8.37;2.13;;;;;;;2.82;63.22;103009.88;6068898;29;20233;-56
2021/03/06 03:34:22;;;;;;;3.53;2.10;;;;;;;2.54;63.82;103017.69;6069961;29;20611;-60
2021/03/06 03:37:45;;;;;;;5.70;2.33;;;;;;;3.45;61.30;103007.38;6071105;29;20240;-53
2021/03/06 03:41:09;;;;;;;6.57;2.20;;;;;;;3.46;60.40;103016.88;6072477;29;20225;-51
2021/03/06 03:44:31;;;;;;;6.50;2.40;;;;;;;3.42;61.34;103012.38;6069157;29;20259;-57
2021/03/06 03:47:51;;;;;;;9.20;2.60;;;;;;;3.47;61.71;103016.06;6070125;29;20261;-54
2021/03/06 03:51:13;;;;;;;11.50;3.07;;;;;;;3.30;62.15;103005.72;6072666;29;20233;-55
2021/03/06 03:54:43;;;;;;;6.37;1.60;;;;;;;3.41;61.13;103005.44;6060511;29;20282;-56
2021/03/06 03:58:04;;;;;;;5.30;1.83;;;;;;;2.72;63.69;103007.56;6067081;29;20620;-57
2021/03/06 04:01:24;;;;;;;4.93;2.40;;;;;;;2.72;64.51;103017.84;6066094;29;20614;-55
2021/03/06 04:04:44;;;;;;;7.40;3.03;;;;;;;2.54;65.20;103013.41;6061137;29;20238;-56
2021/03/06 04:08:05;;;;;;;4.10;2.83;;;;;;;2.88;63.85;103015.34;6061783;29;20520;-54
2021/03/06 04:11:26;;;;;;;5.40;2.43;;;;;;;3.18;63.31;103009.28;6062138;29;20241;-53
2021/03/06 04:14:46;;;;;;;12.37;2.27;;;;;;;2.50;66.20;103015.69;6073579;29;20225;-55
2021/03/06 04:18:07;;;;;;;6.37;1.83;;;;;;;2.73;66.09;103020.53;6068468;29;20252;-56
2021/03/06 04:21:27;;;;;;;8.33;2.20;;;;;;;2.65;66.33;103026.00;6071172;29;20241;-54
2021/03/06 04:24:48;;;;;;;2.90;2.07;;;;;;;2.81;66.21;103023.53;6038064;29;20229;-55
2021/03/06 04:28:10;;;;;;;4.17;2.23;;;;;;;2.99;66.28;103027.97;6065139;29;20237;-55
2021/03/06 04:31:30;;;;;;;8.77;3.43;;;;;;;2.48;68.75;103025.00;6052088;29;20229;-53
2021/03/06 04:34:50;;;;;;;4.43;2.17;;;;;;;2.27;69.72;103027.16;6070427;29;20256;-55
2021/03/06 04:38:11;;;;;;;8.73;2.93;;;;;;;2.20;70.48;103025.94;6046670;29;20232;-59
2021/03/06 04:41:31;;;;;;;8.87;2.73;;;;;;;2.52;69.04;103025.28;6072601;29;20715;-52
2021/03/06 04:44:52;;;;;;;5.63;3.77;;;;;;;2.26;70.38;103025.41;6058725;29;20627;-56
2021/03/06 04:48:13;;;;;;;7.00;2.63;;;;;;;2.48;69.72;103027.56;6057688;29;20336;-55
2021/03/06 04:51:34;;;;;;;8.53;2.93;;;;;;;2.54;69.95;103030.53;6055985;29;20249;-57
2021/03/06 04:54:54;;;;;;;9.77;3.43;;;;;;;2.26;72.44;103020.28;6071332;29;20237;-52
2021/03/06 04:58:15;;;;;;;6.90;3.33;;;;;;;2.36;71.56;103028.66;6065923;29;20241;-57
2021/03/06 05:01:36;;;;;;;7.27;3.20;;;;;;;2.12;73.30;103022.91;6049214;29;20268;-57
2021/03/06 05:04:58;;;;;;;7.40;4.17;;;;;;;2.29;72.58;103030.75;6069820;29;20264;-54
2021/03/06 05:08:19;;;;;;;4.90;3.33;;;;;;;2.64;70.48;103019.97;6067480;29;20236;-57
2021/03/06 05:11:39;;;;;;;5.40;3.83;;;;;;;2.79;70.01;103014.81;6075427;29;20854;-56
2021/03/06 05:15:00;;;;;;;15.03;5.70;;;;;;;2.69;70.91;103023.69;6069357;29;20229;-55
2021/03/06 05:18:21;;;;;;;11.10;5.60;;;;;;;2.79;70.62;103019.09;6068062;29;20679;-54
2021/03/06 05:21:41;;;;;;;11.93;5.77;;;;;;;2.73;71.08;103028.25;6082431;29;20610;-56
2021/03/06 05:25:02;;;;;;;8.23;6.23;;;;;;;2.47;71.77;103029.28;6075247;29;20221;-52
2021/03/06 05:28:23;;;;;;;12.93;6.97;;;;;;;2.69;70.36;103030.53;6078907;29;20690;-57
2021/03/06 05:31:44;;;;;;;8.17;6.50;;;;;;;3.12;69.90;103030.44;6074351;29;20249;-55
2021/03/06 05:35:06;;;;;;;8.93;5.87;;;;;;;2.49;72.16;103039.66;6074824;29;20557;-54
2021/03/06 05:38:27;;;;;;;10.13;6.70;;;;;;;2.40;72.87;103037.41;6076903;29;20611;-57
2021/03/06 05:41:48;;;;;;;8.13;6.17;;;;;;;2.56;72.38;103039.22;6074742;29;20233;-55
2021/03/06 05:45:09;;;;;;;9.17;6.53;;;;;;;2.74;71.40;103036.84;6073965;29;20651;-54
2021/03/06 05:48:30;;;;;;;7.23;4.73;;;;;;;2.96;70.25;103034.69;6077841;29;20533;-55
2021/03/06 05:51:53;;;;;;;8.80;4.90;;;;;;;2.95;71.22;103027.78;6072764;29;20237;-56
2021/03/06 05:55:17;;;;;;;8.77;4.60;;;;;;;3.13;71.29;103027.06;6073487;29;20236;-55
2021/03/06 05:58:41;;;;;;;6.43;4.13;;;;;;;3.25;70.06;103027.75;6072804;29;20331;-58
2021/03/06 06:02:03;;;;;;;8.67;4.77;;;;;;;3.47;69.71;103034.09;6073361;29;20604;-57
2021/03/06 06:05:24;;;;;;;8.70;4.20;;;;;;;3.18;71.18;103030.81;6075371;29;20237;-56
2021/03/06 06:08:46;;;;;;;11.77;5.13;;;;;;;3.33;71.35;103031.66;6075027;29;20316;-57
2021/03/06 06:12:07;;;;;;;6.40;4.40;;;;;;;3.74;69.28;103030.47;6052176;29;20241;-55
2021/03/06 06:15:28;;;;;;;11.33;5.07;;;;;;;4.13;68.01;103041.16;6048864;29;20242;-53
2021/03/06 06:18:50;;;;;;;9.13;5.27;;;;;;;4.00;69.32;103037.84;6067201;29;20505;-56
2021/03/06 06:22:17;;;;;;;9.80;4.17;;;;;;;3.97;69.12;103042.81;6068317;29;20315;-56
2021/03/06 06:25:39;;;;;;;8.23;4.23;;;;;;;4.22;68.03;103037.28;6070733;29;20261;-54
2021/03/06 06:29:00;;;;;;;7.97;5.00;;;;;;;4.12;68.71;103028.16;6036873;29;20253;-52
2021/03/06 06:32:22;;;;;;;13.17;5.33;;;;;;;4.36;68.46;103028.56;6048490;29;20234;-57
2021/03/06 06:35:43;;;;;;;8.90;5.03;;;;;;;4.68;66.87;103037.06;6048780;29;20245;-53
2021/03/06 06:39:04;;;;;;;11.90;5.00;;;;;;;4.68;67.08;103037.94;6041003;29;20246;-56
2021/03/06 06:42:33;;;;;;;8.73;4.37;;;;;;;4.52;67.72;103035.41;6049410;29;20238;-56
2021/03/06 06:45:54;;;;;;;6.40;4.20;;;;;;;4.51;67.18;103042.25;6045614;29;20232;-56
2021/03/06 06:49:14;;;;;;;10.07;3.90;;;;;;;4.89;66.11;103039.84;6075222;29;20600;-57
2021/03/06 06:52:39;;;;;;;8.27;3.47;;;;;;;5.10;68.50;103042.63;6073381;29;20237;-56
2021/03/06 06:55:59;;;;;;;9.60;4.03;;;;;;;4.98;66.69;103052.31;6066115;29;20619;-57
2021/03/06 06:59:21;;;;;;;10.30;3.80;;;;;;;4.81;67.71;103066.97;6065728;29;20233;-55
2021/03/06 07:02:51;;;;;;;11.53;4.90;;;;;;;4.80;67.13;103063.50;6067679;29;20241;-56
2021/03/06 07:06:13;;;;;;;11.97;4.07;;;;;;;4.98;67.41;103063.53;6051692;29;20229;-57
2021/03/06 07:09:33;;;;;;;12.43;4.43;;;;;;;5.14;66.47;103067.78;6064250;29;20600;-54
2021/03/06 07:12:59;;;;;;;9.40;3.93;;;;;;;5.18;66.51;103071.41;6069102;29;20237;-56
2021/03/06 07:16:20;;;;;;;9.13;3.57;;;;;;;5.15;66.90;103069.53;6069369;29;20581;-56
2021/03/06 07:19:42;;;;;;;15.40;4.03;;;;;;;5.13;67.46;103066.00;6039038;29;20237;-57
2021/03/06 07:23:15;;;;;;;15.47;4.60;;;;;;;5.37;66.48;103071.50;6058244;29;20236;-54
2021/03/06 07:26:37;;;;;;;9.57;4.40;;;;;;;5.60;65.98;103074.25;6054432;29;20762;-57
2021/03/06 07:29:57;;;;;;;15.77;4.87;;;;;;;5.25;66.72;103073.44;6050690;29;20282;-57
2021/03/06 07:33:19;;;;;;;10.30;4.30;;;;;;;5.33;67.38;103078.19;6065553;29;20260;-54
2021/03/06 07:36:43;;;;;;;8.90;4.37;;;;;;;5.36;66.62;103076.56;6079324;29;20237;-56
2021/03/06 07:40:06;;;;;;;10.43;4.67;;;;;;;5.00;68.26;103077.44;6058354;29;20233;-55
2021/03/06 07:43:29;;;;;;;10.00;5.23;;;;;;;5.63;65.96;103072.72;6058742;29;20233;-55
2021/03/06 07:46:50;;;;;;;12.70;5.07;;;;;;;5.60;66.15;103075.13;6061227;29;20237;-57
2021/03/06 07:50:19;;;;;;;6.73;3.83;;;;;;;5.73;65.77;103077.50;6064848;29;20237;-56
2021/03/06 07:53:39;;;;;;;8.70;5.50;;;;;;;5.84;65.51;103082.31;6048585;29;20986;-56
2021/03/06 07:56:59;;;;;;;11.63;4.87;;;;;;;6.11;65.24;103087.91;6061269;29;20257;-57
2021/03/06 08:00:37;;;;;;;13.53;4.30;;;;;;;6.01;65.51;103086.59;6063625;29;20233;-53
2021/03/06 08:03:58;;;;;;;10.03;4.67;;;;;;;5.89;67.00;103091.16;6052766;29;20245;-54
2021/03/06 08:07:19;;;;;;;8.80;3.80;;;;;;;5.52;69.02;103092.00;6049670;29;20819;-57
2021/03/06 08:11:03;;;;;;;16.90;5.70;;;;;;;5.79;68.65;103099.28;6053665;29;20294;-55
2021/03/06 08:14:37;;;;;;;11.27;4.97;;;;;;;6.00;67.40;103100.31;6060222;29;20908;-55
2021/03/06 08:18:00;;;;;;;13.73;3.53;;;;;;;6.11;67.10;103108.59;6060542;29;20240;-52
2021/03/06 08:21:27;;;;;;;12.07;4.00;;;;;;;5.87;67.60;103098.84;6059254;29;20426;-55
2021/03/06 08:24:48;;;;;;;14.13;5.67;;;;;;;6.18;66.37;103096.81;6055160;29;20221;-56
2021/03/06 08:28:25;;;;;;;7.53;4.33;;;;;;;6.11;66.45;103104.31;6062139;29;20466;-55
2021/03/06 08:31:46;;;;;;;15.97;4.73;;;;;;;6.32;66.08;103108.69;6068151;29;20245;-52
2021/03/06 08:35:22;;;;;;;8.10;4.40;;;;;;;6.36;66.13;103114.88;6058281;29;20340;-54
2021/03/06 08:38:43;;;;;;;7.53;3.80;;;;;;;6.58;71.07;103121.91;6064551;29;20238;-53
2021/03/06 08:42:04;;;;;;;7.67;4.47;;;;;;;7.43;66.74;103110.81;6064144;29;20233;-54
2021/03/06 08:45:27;;;;;;;10.07;5.13;;;;;;;7.89;65.09;103115.25;6063535;29;20237;-52
2021/03/06 08:48:47;;;;;;;9.13;3.77;;;;;;;8.52;64.56;103114.13;6066575;29;20253;-53
2021/03/06 08:52:08;;;;;;;8.90;4.90;;;;;;;9.00;63.74;103106.28;6058599;29;20639;-53
2021/03/06 08:55:30;;;;;;;7.33;4.37;;;;;;;9.14;63.11;103112.81;6070224;29;20319;-53
2021/03/06 08:58:51;;;;;;;9.40;4.00;;;;;;;9.87;60.26;103123.84;6060599;29;20237;-54
2021/03/06 09:02:15;;;;;;;6.30;4.57;;;;;;;9.12;58.62;103119.69;6069024;29;20260;-57
2021/03/06 09:05:36;;;;;;;5.03;3.20;;;;;;;9.31;58.72;103118.59;6069474;29;20584;-54
2021/03/06 09:08:56;;;;;;;7.33;4.23;;;;;;;8.95;57.77;103121.72;6067870;29;20241;-55
2021/03/06 09:12:16;;;;;;;11.73;5.20;;;;;;;8.70;58.43;103135.56;6060064;29;20275;-56
2021/03/06 09:15:41;;;;;;;11.20;6.17;;;;;;;8.52;58.87;103125.41;6064392;29;20240;-53
2021/03/06 09:19:01;;;;;;;10.60;5.43;;;;;;;7.91;61.08;103134.34;6055979;29;20287;-55
2021/03/06 09:22:22;;;;;;;7.23;4.77;;;;;;;7.88;61.56;103123.84;6068199;29;20233;-55
2021/03/06 09:25:43;;;;;;;5.43;4.20;;;;;;;8.63;59.38;103128.41;6042320;29;20259;-53
2021/03/06 09:29:03;;;;;;;5.37;3.73;;;;;;;8.62;58.89;103137.88;6059089;29;20237;-54
2021/03/06 09:32:32;;;;;;;7.47;3.10;;;;;;;8.42;59.60;103139.75;6064025;29;20623;-53
2021/03/06 09:35:59;;;;;;;5.97;3.30;;;;;;;8.28;59.64;103128.84;6069490;29;20467;-54
2021/03/06 09:39:22;;;;;;;5.37;2.60;;;;;;;8.03;60.61;103132.22;6069856;29;20356;-52
2021/03/06 09:42:42;;;;;;;4.10;2.87;;;;;;;8.26;60.11;103134.81;6069615;29;20573;-57
2021/03/06 09:46:12;;;;;;;7.80;4.97;;;;;;;7.98;61.58;103127.66;6061551;29;20508;-57
2021/03/06 09:49:35;;;;;;;7.50;3.30;;;;;;;7.71;62.17;103127.47;6063499;29;20233;-54
2021/03/06 09:52:55;;;;;;;7.70;4.30;;;;;;;7.61;63.54;103121.91;6064703;29;20252;-56
2021/03/06 09:56:16;;;;;;;5.33;3.60;;;;;;;7.78;63.28;103122.59;6066152;29;20237;-55
2021/03/06 09:59:38;;;;;;;7.03;3.20;;;;;;;7.44;63.92;103110.88;6067572;29;20238;-53
2021/03/06 10:02:59;;;;;;;4.30;3.07;;;;;;;7.58;64.18;103119.22;6068524;29;20336;-52
2021/03/06 10:06:23;;;;;;;7.03;3.00;;;;;;;7.44;64.32;103115.16;6077137;29;20236;-53
2021/03/06 10:09:43;;;;;;;5.10;3.17;;;;;;;7.53;64.03;103117.25;6064367;29;20229;-56
2021/03/06 10:13:04;;;;;;;7.87;4.77;;;;;;;7.61;64.73;103124.50;6077480;29;20241;-57
2021/03/06 10:16:24;;;;;;;5.30;2.97;;;;;;;7.78;62.99;103124.31;6070149;29;20229;-55
2021/03/06 10:19:46;;;;;;;5.43;3.40;;;;;;;8.18;61.48;103128.41;6076420;29;20265;-54
2021/03/06 10:23:07;;;;;;;5.97;3.97;;;;;;;7.81;62.29;103127.00;6068280;29;20233;-55
2021/03/06 10:26:28;;;;;;;6.87;4.23;;;;;;;8.02;60.91;103130.44;6084127;29;20323;-54
2021/03/06 10:29:49;;;;;;;5.63;3.80;;;;;;;8.12;60.60;103128.19;6051367;29;20445;-53
2021/03/06 10:33:21;;;;;;;6.20;3.50;;;;;;;8.00;59.17;103107.84;6050609;29;20234;-53
2021/03/06 10:36:42;;;;;;;4.93;3.53;;;;;;;7.68;60.32;103126.53;6065474;29;20818;-53
2021/03/06 10:40:07;;;;;;;4.90;3.77;;;;;;;7.90;59.69;103122.19;6055673;29;20331;-54
2021/03/06 10:43:31;;;;;;;4.33;3.03;;;;;;;8.16;59.18;103119.69;6068181;29;20532;-53
2021/03/06 10:46:59;;;;;;;5.90;3.23;;;;;;;7.85;59.38;103124.59;6070811;29;20237;-56
2021/03/06 10:50:25;;;;;;;5.23;3.90;;;;;;;7.82;58.56;103123.59;6070492;29;20233;-58
2021/03/06 10:53:59;;;;;;;6.00;3.40;;;;;;;7.74;59.10;103119.81;6074853;29;20233;-57
2021/03/06 10:57:21;;;;;;;6.67;3.63;;;;;;;7.78;59.22;103121.72;6067597;29;21697;-53
2021/03/06 11:00:43;;;;;;;7.97;2.87;;;;;;;7.39;59.82;103121.88;6066550;29;20253;-54
2021/03/06 11:04:04;;;;;;;7.63;3.47;;;;;;;7.79;59.45;103126.06;6071695;29;20249;-55
2021/03/06 11:07:26;;;;;;;2.67;2.47;;;;;;;7.38;59.48;103115.78;6065168;29;20261;-52
2021/03/06 11:10:48;;;;;;;4.67;2.70;;;;;;;7.68;58.16;103113.56;6072023;29;21055;-54
2021/03/06 11:14:21;;;;;;;5.43;2.10;;;;;;;7.73;57.98;103108.53;6066688;29;20237;-55
2021/03/06 11:17:43;;;;;;;3.47;2.67;;;;;;;7.60;57.64;103114.06;6067994;29;20508;-52
2021/03/06 11:21:05;;;;;;;7.33;2.97;;;;;;;7.75;57.79;103108.59;6069086;29;20328;-56
2021/03/06 11:24:25;;;;;;;7.20;2.83;;;;;;;7.88;57.09;103110.84;6069651;29;20627;-53
2021/03/06 11:27:51;;;;;;;3.17;2.23;;;;;;;7.58;58.03;103124.41;6057135;29;20237;-55
2021/03/06 11:31:12;;;;;;;2.57;2.37;;;;;;;7.83;57.53;103114.97;6067073;29;20246;-56
2021/03/06 11:34:33;;;;;;;7.63;4.03;;;;;;;7.52;58.49;103113.75;6067665;29;20234;-54
2021/03/06 11:37:54;;;;;;;6.37;4.53;;;;;;;7.64;58.05;103114.28;6075538;29;20233;-55
2021/03/06 11:41:14;;;;;;;5.40;3.60;;;;;;;7.59;58.45;103115.78;6056519;29;20225;-56
2021/03/06 11:44:35;;;;;;;8.67;4.87;;;;;;;7.84;56.87;103111.56;6068031;29;20233;-54
2021/03/06 11:47:57;;;;;;;7.00;5.20;;;;;;;7.77;56.26;103114.75;6070741;29;20237;-53
2021/03/06 11:51:18;;;;;;;6.70;5.07;;;;;;;8.13;55.34;103098.84;6070215;29;20269;-55
2021/03/06 11:54:38;;;;;;;7.03;4.70;;;;;;;8.03;54.93;103093.28;6056072;29;20241;-54
2021/03/06 11:57:59;;;;;;;5.77;5.17;;;;;;;7.98;55.01;103092.22;6049800;29;20233;-55
2021/03/06 12:01:20;;;;;;;6.70;5.23;;;;;;;7.86;55.34;103079.66;6051135;29;20870;-56
2021/03/06 12:04:42;;;;;;;6.77;5.57;;;;;;;7.87;55.66;103093.50;6056691;29;20315;-57
2021/03/06 12:08:02;;;;;;;6.13;5.27;;;;;;;7.84;55.65;103086.50;6038371;29;20249;-52
2021/03/06 12:11:23;;;;;;;6.07;4.23;;;;;;;7.64;56.68;103075.38;6069361;29;20261;-57
2021/03/06 12:14:43;;;;;;;7.77;3.50;;;;;;;7.82;56.57;103076.91;6064376;29;20245;-57
2021/03/06 12:18:04;;;;;;;6.07;3.00;;;;;;;7.74;57.98;103073.13;6073091;29;20237;-55
2021/03/06 12:21:25;;;;;;;5.53;3.20;;;;;;;7.64;58.96;103067.59;6070598;29;20248;-55
2021/03/06 12:24:46;;;;;;;5.90;1.77;;;;;;;7.58;59.17;103067.34;6058527;29;20628;-56
2021/03/06 12:28:07;;;;;;;4.73;2.77;;;;;;;7.58;58.21;103051.78;6073031;29;20340;-53
2021/03/06 12:31:28;;;;;;;7.23;1.87;;;;;;;7.95;57.71;103058.38;6067514;29;20609;-53
2021/03/06 12:34:49;;;;;;;6.83;2.67;;;;;;;8.36;56.80;103061.63;6066377;29;20237;-56
2021/03/06 12:38:10;;;;;;;6.93;3.20;;;;;;;8.80;55.85;103038.94;6067001;29;20237;-56
2021/03/06 12:41:30;;;;;;;4.47;1.90;;;;;;;8.67;55.81;103032.44;6062024;29;20517;-55
2021/03/06 12:44:51;;;;;;;5.63;2.17;;;;;;;8.35;56.97;103039.06;6062204;29;20245;-54
2021/03/06 12:48:12;;;;;;;5.43;1.83;;;;;;;8.13;57.11;103028.75;6070356;29;20245;-54
2021/03/06 12:51:32;;;;;;;5.40;2.37;;;;;;;8.34;56.50;103029.53;6061405;29;20233;-56
2021/03/06 12:54:53;;;;;;;4.30;1.90;;;;;;;8.72;55.02;103019.59;6063524;29;20233;-51
2021/03/06 12:58:13;;;;;;;6.33;2.10;;;;;;;9.11;53.60;103013.06;6071958;29;20671;-55
2021/03/06 13:01:34;;;;;;;5.53;1.73;;;;;;;8.98;53.92;103027.41;6050200;29;20328;-55
2021/03/06 13:04:54;;;;;;;9.17;2.60;;;;;;;8.16;56.28;103026.25;6072425;29;20393;-55
2021/03/06 13:08:15;;;;;;;6.67;1.80;;;;;;;8.13;56.00;103015.78;6058891;29;20237;-54
2021/03/06 13:11:36;;;;;;;6.33;1.83;;;;;;;8.22;55.79;103013.47;6060579;29;20241;-55
2021/03/06 13:14:57;;;;;;;5.50;1.47;;;;;;;8.31;55.37;103020.72;6061746;29;20225;-56
2021/03/06 13:18:17;;;;;;;4.83;1.97;;;;;;;8.46;53.53;103001.41;6058496;29;20245;-55
2021/03/06 13:21:38;;;;;;;2.70;1.30;;;;;;;8.65;51.26;103008.13;6060276;29;20241;-56
2021/03/06 13:24:58;;;;;;;3.03;0.97;;;;;;;8.87;50.21;103009.72;6056163;29;20727;-57
2021/03/06 13:28:20;;;;;;;2.90;1.00;;;;;;;8.74;50.10;103006.66;6055846;29;20233;-56
2021/03/06 13:31:41;;;;;;;2.07;1.10;;;;;;;8.72;49.25;103004.00;6057634;29;20233;-55
2021/03/06 13:35:01;;;;;;;3.50;1.23;;;;;;;8.84;49.65;103006.13;6055025;29;20237;-56
2021/03/06 13:38:22;;;;;;;0.90;0.90;;;;;;;8.81;49.88;102999.13;6045105;29;20308;-54
2021/03/06 13:41:43;;;;;;;2.63;1.00;;;;;;;9.43;48.29;102990.66;6060750;29;20241;-56
2021/03/06 13:45:06;;;;;;;2.60;0.80;;;;;;;9.41;47.15;102990.63;6060113;29;20591;-56
2021/03/06 13:48:26;;;;;;;4.77;1.20;;;;;;;9.54;46.91;102981.47;6062793;29;20260;-55
2021/03/06 13:51:47;;;;;;;1.57;1.00;;;;;;;11.16;43.20;102970.09;6054064;29;20285;-56
2021/03/06 13:55:09;;;;;;;2.90;1.00;;;;;;;10.48;44.38;102967.59;6060974;29;20630;-54
2021/03/06 13:58:29;;;;;;;2.87;2.03;;;;;;;9.47;46.41;102971.72;6065846;29;20561;-54
2021/03/06 14:01:51;;;;;;;4.47;0.93;;;;;;;10.12;45.41;102963.13;6062822;29;20607;-54
2021/03/06 14:05:11;;;;;;;2.50;1.20;;;;;;;9.79;46.10;102974.38;6061288;29;20233;-57
2021/03/06 14:08:32;;;;;;;3.47;1.37;;;;;;;9.32;46.59;102971.25;6060188;29;20332;-56
2021/03/06 14:11:53;;;;;;;5.17;1.83;;;;;;;8.92;46.76;102970.91;6054098;29;20762;-55
2021/03/06 14:15:16;;;;;;;5.03;3.00;;;;;;;8.18;48.73;102949.31;6063334;29;20248;-56
2021/03/06 14:18:37;;;;;;;3.03;1.40;;;;;;;8.94;46.84;102948.44;6063825;29;20420;-55
2021/03/06 14:21:57;;;;;;;6.67;1.13;;;;;;;8.75;47.89;102956.47;6056095;29;20233;-55
2021/03/06 14:25:18;;;;;;;2.90;1.20;;;;;;;9.96;46.01;102946.22;6064621;29;20252;-55
2021/03/06 14:28:39;;;;;;;4.93;2.70;;;;;;;10.29;44.35;102928.00;6043901;29;20242;-55
2021/03/06 14:31:59;;;;;;;7.87;4.70;;;;;;;9.65;46.52;102942.75;6066464;29;20650;-57
2021/03/06 14:35:21;;;;;;;3.07;1.53;;;;;;;8.72;48.46;102948.56;6060164;29;20237;-56
2021/03/06 14:38:41;;;;;;;5.73;2.17;;;;;;;8.14;50.25;102948.31;6058019;29;20237;-55
2021/03/06 14:42:02;;;;;;;3.00;2.40;;;;;;;8.08;50.72;102941.25;6057842;29;20647;-57
2021/03/06 14:45:22;;;;;;;3.33;1.60;;;;;;;7.73;52.13;102945.13;6062233;29;20604;-54
2021/03/06 14:48:43;;;;;;;3.33;1.60;;;;;;;7.69;52.79;102945.84;6060958;29;20273;-54
2021/03/06 14:52:06;;;;;;;5.47;1.97;;;;;;;7.66;52.95;102936.25;6058856;29;20521;-55
2021/03/06 14:55:26;;;;;;;3.97;1.47;;;;;;;7.76;52.24;102939.19;6058616;29;20252;-55
2021/03/06 14:58:47;;;;;;;5.33;2.20;;;;;;;7.80;51.86;102938.47;6060621;29;21805;-55
2021/03/06 15:02:08;;;;;;;3.27;1.60;;;;;;;7.80;52.31;102939.34;6057405;29;20530;-55
2021/03/06 15:05:30;;;;;;;3.77;2.47;;;;;;;7.83;52.26;102923.00;6058818;29;20253;-56
2021/03/06 15:08:52;;;;;;;4.53;2.80;;;;;;;9.04;62.31;102926.22;6060143;29;20355;-52
2021/03/06 15:12:13;;;;;;;3.27;1.30;;;;;;;9.23;53.89;102919.88;6063625;29;20623;-57
2021/03/06 15:15:33;;;;;;;6.00;1.87;;;;;;;8.21;51.85;102913.97;6065798;29;20241;-54
2021/03/06 15:18:55;;;;;;;7.67;3.30;;;;;;;7.85;53.20;102916.16;6046438;29;20241;-58
2021/03/06 15:22:15;;;;;;;3.93;2.70;;;;;;;7.64;53.92;102917.16;6055626;29;20566;-54
2021/03/06 15:25:37;;;;;;;4.83;2.57;;;;;;;7.64;53.49;102914.56;6061684;29;20229;-57
2021/03/06 15:28:57;;;;;;;3.53;1.70;;;;;;;7.54;53.55;102915.06;6057243;29;21836;-55
2021/03/06 15:32:17;;;;;;;2.63;1.80;;;;;;;7.80;52.72;102913.41;6062307;29;20320;-54
2021/03/06 15:35:38;;;;;;;4.67;2.23;;;;;;;7.84;52.76;102909.22;6058251;29;20556;-55
2021/03/06 15:38:59;;;;;;;2.97;2.07;;;;;;;7.63;53.28;102925.75;6055871;29;20234;-58
2021/03/06 15:42:20;;;;;;;2.10;1.33;;;;;;;7.55;53.26;102910.75;6059461;29;20229;-56
2021/03/06 15:45:41;;;;;;;2.37;1.33;;;;;;;7.38;54.11;102921.38;6061548;29;20233;-55
2021/03/06 15:49:01;;;;;;;3.27;1.70;;;;;;;7.33;53.78;102912.56;6060380;29;20233;-55